Weather at Reus Airport

Public forecast

Using degrees Celsius for public forecast. Weather courtesy of forecast.io.

Current aviation weather report (METAR) for Reus Airport

2024/04/13 08:30 (retrieved 17 minutes ago)

LERS 130830Z VRB02KT CAVOK 25/06 Q1028

Aviation forecast (TAF) for Reus Airport

2024/04/13 09:29 (retrieved 0 seconds ago)

TAF LERS 130800Z 1309/1409 VRB03KT CAVOK TX26/1315Z TN12/1406Z BECMG 1309/1311 13010KT BECMG 1316/1318 VRB03KT